Westboro, Ohio
Current Conditions -  °F | °C
As of 4:54 AM on Wednesday 26 Nov 2014 (Local Time) from KILN Reporting Station
Clear Clear  
Wind Chill: 17°   Ceiling: Unl
Heat Index: 26°   Visibility: 8mi
Dew Point: 23°   Wind: 9mph
Humidity: 88%   Direction: 10°N
Pressure: 30.09"   Gusts: NA
Location:  39.2883°N, 83.8861°W
Report Text: KILN 260954Z AUTO 01008KT 8SM CLR M03/M05 A3009 RMK AO2 SLP216 T10331050
Loading
Personal Weather Stations






























Interactive Weather Map New forecast layout! Learn more

10-Day Weather Forecast

Advertisements
Track Severe Weather on mobile